Time;durP1;ratioP1;P1;durP2;ratioP2;P2;SDS_P1;SDS_P2;PMS_P1;PMS_P2;Temp;Humidity;BMP_temperature;BMP_pressure;BME280_temperature;BME280_humidity;BME280_pressure;Samples;Min_cycle;Max_cycle;Signal;HPM_P1;HPM_P2
2022/01/03 00:02:25;;;;;;;20.98;1.75;;;8.90;99.90;;;;;;5113719;28;20399;-73
2022/01/03 00:04:52;;;;;;;23.40;1.88;;;8.90;99.90;;;;;;5096146;28;20050;-73
2022/01/03 00:07:18;;;;;;;23.88;1.63;;;9.00;99.90;;;;;;5113463;28;20048;-73
2022/01/03 00:09:44;;;;;;;21.83;1.58;;;9.00;99.90;;;;;;5094942;28;20055;-73
2022/01/03 00:12:10;;;;;;;18.58;0.95;;;9.00;99.90;;;;;;5094948;28;20175;-73
2022/01/03 00:14:36;;;;;;;19.90;2.03;;;9.00;99.90;;;;;;5129038;27;20104;-73
2022/01/03 00:17:02;;;;;;;20.88;1.55;;;9.10;99.90;;;;;;5113328;28;20293;-73
2022/01/03 00:19:28;;;;;;;19.00;2.03;;;9.00;99.90;;;;;;5113515;28;20181;-73
2022/01/03 00:21:57;;;;;;;25.08;2.25;;;9.10;99.90;;;;;;5113369;28;20047;-73
2022/01/03 00:24:33;;;;;;;25.63;1.33;;;9.20;99.90;;;;;;5113289;28;20047;-73
2022/01/03 00:27:05;;;;;;;21.40;1.55;;;9.20;99.90;;;;;;5096145;28;20047;-73
2022/01/03 00:29:57;;;;;;;21.73;2.00;;;9.20;99.90;;;;;;5113493;28;20080;-73
2022/01/03 00:32:23;;;;;;;17.88;1.20;;;9.20;99.90;;;;;;5109187;28;20207;-73
2022/01/03 00:34:51;;;;;;;23.07;1.50;;;9.30;99.90;;;;;;5113183;28;20044;-73
2022/01/03 00:37:21;;;;;;;21.92;2.35;;;9.40;99.90;;;;;;5094801;28;20405;-73
2022/01/03 00:39:47;;;;;;;11.15;0.90;;;9.40;99.90;;;;;;5114087;28;20451;-73
2022/01/03 00:42:16;;;;;;;26.13;2.58;;;9.40;99.90;;;;;;5113570;28;20363;-73
2022/01/03 00:44:43;;;;;;;17.13;1.63;;;9.40;99.90;;;;;;5094952;28;20130;-73
2022/01/03 00:47:10;;;;;;;14.77;1.25;;;9.50;99.90;;;;;;5113799;28;20146;-73
2022/01/03 00:49:39;;;;;;;21.00;1.50;;;9.50;99.90;;;;;;5094764;28;20091;-72
2022/01/03 00:52:05;;;;;;;15.88;1.65;;;9.50;99.90;;;;;;5113267;28;20117;-72
2022/01/03 00:54:31;;;;;;;16.83;1.30;;;9.60;99.90;;;;;;5113070;28;20071;-72
2022/01/03 00:57:04;;;;;;;16.63;1.42;;;9.60;99.90;;;;;;5112874;28;20221;-72
2022/01/03 00:59:42;;;;;;;20.48;1.75;;;9.70;99.90;;;;;;5094897;28;20108;-73
2022/01/03 01:02:10;;;;;;;28.65;2.20;;;9.60;99.90;;;;;;5113411;28;20131;-73
2022/01/03 01:04:37;;;;;;;14.77;1.08;;;9.60;99.90;;;;;;5094762;28;20043;-74
2022/01/03 01:07:05;;;;;;;20.08;1.52;;;9.70;99.90;;;;;;5094102;28;20043;-73
2022/01/03 01:09:34;;;;;;;20.42;1.73;;;9.70;99.90;;;;;;5111903;28;20048;-73
2022/01/03 01:12:00;;;;;;;20.77;1.48;;;9.80;99.90;;;;;;5093790;28;20050;-73
2022/01/03 01:14:28;;;;;;;17.77;1.48;;;9.80;99.90;;;;;;5111876;28;20047;-73
2022/01/03 01:16:54;;;;;;;22.85;2.20;;;9.70;99.90;;;;;;5111796;28;20054;-73
2022/01/03 01:19:21;;;;;;;20.98;1.85;;;9.60;99.90;;;;;;5093576;28;20055;-73
2022/01/03 01:21:51;;;;;;;16.30;1.65;;;9.60;99.90;;;;;;5111451;28;20052;-73
2022/01/03 01:24:20;;;;;;;19.55;1.77;;;9.70;99.90;;;;;;5112115;28;20172;-74
2022/01/03 01:29:30;;;;;;;18.08;1.45;;;9.70;99.90;;;;;;5111697;28;20135;-73
2022/01/03 01:32:01;;;;;;;20.25;1.42;;;9.80;99.90;;;;;;5111609;28;20126;-73
2022/01/03 01:34:28;;;;;;;17.98;1.13;;;9.80;99.90;;;;;;5112372;28;20086;-73
2022/01/03 01:36:57;;;;;;;14.77;1.65;;;9.80;99.90;;;;;;5112062;28;20107;-73
2022/01/03 01:39:25;;;;;;;16.80;2.42;;;9.80;99.90;;;;;;5111904;28;20451;-73
2022/01/03 01:41:55;;;;;;;24.42;1.25;;;9.80;99.90;;;;;;5111627;28;20168;-74
2022/01/03 01:44:23;;;;;;;17.05;1.67;;;9.80;99.90;;;;;;5111915;28;20130;-74
2022/01/03 01:46:57;;;;;;;17.98;1.20;;;9.90;99.90;;;;;;5093005;28;20480;-73
2022/01/03 01:49:25;;;;;;;17.85;1.52;;;9.80;99.90;;;;;;5111113;28;20051;-74
2022/01/03 01:52:02;;;;;;;15.90;1.83;;;9.80;99.90;;;;;;5093515;28;20109;-74
2022/01/03 01:54:31;;;;;;;18.65;1.65;;;9.80;99.90;;;;;;5111420;28;20048;-74
2022/01/03 01:57:06;;;;;;;15.98;1.40;;;9.80;99.90;;;;;;5127086;28;20048;-74
2022/01/03 01:59:55;;;;;;;17.10;1.45;;;9.80;99.90;;;;;;5111332;28;20039;-74
2022/01/03 02:02:35;;;;;;;18.20;1.40;;;9.80;99.90;;;;;;5127617;28;20043;-75
2022/01/03 02:05:27;;;;;;;20.52;1.75;;;9.80;99.90;;;;;;5076504;28;20051;-75
2022/01/03 02:08:12;;;;;;;16.45;1.10;;;9.90;99.90;;;;;;5111798;28;20051;-75
2022/01/03 02:10:47;;;;;;;14.27;1.30;;;9.90;99.90;;;;;;5072569;28;1124916;-75
2022/01/03 02:13:18;;;;;;;22.02;2.22;;;9.80;99.90;;;;;;5112383;28;20055;-75
2022/01/03 02:15:47;;;;;;;14.75;1.40;;;9.70;99.90;;;;;;5128412;28;20075;-74
2022/01/03 02:18:12;;;;;;;17.13;1.50;;;9.60;99.90;;;;;;5112171;28;20047;-75
2022/01/03 02:20:38;;;;;;;16.35;1.90;;;9.60;99.90;;;;;;5077563;28;20039;-75
2022/01/03 02:23:05;;;;;;;15.55;1.20;;;9.50;99.90;;;;;;5112287;28;20104;-74
2022/01/03 02:25:30;;;;;;;17.27;1.80;;;9.40;99.90;;;;;;5112306;28;20467;-74
2022/01/03 02:27:56;;;;;;;22.85;1.50;;;9.30;99.90;;;;;;5111574;28;20076;-76
2022/01/03 02:30:25;;;;;;;15.93;1.38;;;9.20;99.90;;;;;;5094228;28;20063;-75
2022/01/03 02:32:51;;;;;;;13.48;1.02;;;9.20;99.90;;;;;;5112120;28;20126;-75
2022/01/03 02:35:18;;;;;;;18.00;1.20;;;9.20;99.90;;;;;;5094318;28;20387;-75
2022/01/03 02:37:46;;;;;;;18.53;1.23;;;9.20;99.90;;;;;;5114523;28;20157;-75
2022/01/03 02:40:12;;;;;;;24.83;2.47;;;9.20;99.90;;;;;;5131587;27;20052;-75
2022/01/03 02:42:39;;;;;;;25.23;3.57;;;9.20;99.90;;;;;;5098208;28;20055;-75
2022/01/03 02:45:08;;;;;;;28.67;1.48;;;9.20;99.90;;;;;;5115583;28;20039;-76
2022/01/03 02:47:35;;;;;;;21.92;1.67;;;9.10;99.90;;;;;;5131552;27;20047;-75
2022/01/03 02:50:02;;;;;;;19.13;2.00;;;9.10;99.90;;;;;;5115292;28;20043;-75
2022/01/03 02:52:28;;;;;;;20.17;1.02;;;9.00;99.90;;;;;;5114741;28;20555;-74
2022/01/03 02:54:54;;;;;;;16.17;0.95;;;9.00;99.90;;;;;;5096926;28;20048;-76
2022/01/03 02:57:23;;;;;;;27.23;1.92;;;8.90;99.90;;;;;;5130901;27;20043;-75
2022/01/03 02:59:56;;;;;;;19.48;2.20;;;9.00;99.90;;;;;;5096988;28;20096;-76
2022/01/03 03:02:23;;;;;;;31.60;2.45;;;9.00;99.90;;;;;;5096262;28;20517;-75
2022/01/03 03:04:54;;;;;;;17.92;1.98;;;9.00;99.90;;;;;;5114479;28;20047;-74
2022/01/03 03:07:22;;;;;;;21.27;1.27;;;9.00;99.90;;;;;;5115018;28;20092;-74
2022/01/03 03:09:48;;;;;;;18.70;1.33;;;9.00;99.90;;;;;;5114789;28;20063;-74
2022/01/03 03:12:14;;;;;;;18.60;1.75;;;9.00;99.90;;;;;;5114740;28;20139;-74
2022/01/03 03:14:40;;;;;;;26.00;2.13;;;8.90;99.90;;;;;;5114618;28;20050;-75
2022/01/03 03:17:06;;;;;;;19.35;1.48;;;8.90;99.90;;;;;;5114533;28;20040;-75
2022/01/03 03:19:32;;;;;;;17.17;1.33;;;8.90;99.90;;;;;;5114693;28;20047;-74
2022/01/03 03:21:58;;;;;;;24.55;2.35;;;8.80;99.90;;;;;;5115396;28;20138;-74
2022/01/03 03:24:23;;;;;;;23.50;2.22;;;8.80;99.90;;;;;;5097297;28;20134;-74
2022/01/03 03:26:49;;;;;;;17.00;1.55;;;8.90;99.90;;;;;;5116245;28;20044;-75
2022/01/03 03:29:15;;;;;;;30.58;1.75;;;8.80;99.90;;;;;;5115391;28;20153;-75
2022/01/03 03:31:41;;;;;;;24.02;1.75;;;8.90;99.90;;;;;;5114582;28;20044;-74
2022/01/03 03:34:07;;;;;;;23.73;1.52;;;8.90;99.90;;;;;;5114257;28;20567;-74
2022/01/03 03:36:33;;;;;;;29.35;2.38;;;8.90;99.90;;;;;;5114790;28;20126;-75
2022/01/03 03:38:58;;;;;;;19.60;1.42;;;9.00;99.90;;;;;;5114911;28;20454;-76
2022/01/03 03:41:24;;;;;;;23.75;1.70;;;9.00;99.90;;;;;;5114881;28;20387;-75
2022/01/03 03:43:50;;;;;;;25.77;2.08;;;9.00;99.90;;;;;;5095713;28;20102;-75
2022/01/03 03:46:15;;;;;;;21.50;1.70;;;9.00;99.90;;;;;;5095671;28;20035;-75
2022/01/03 03:48:41;;;;;;;27.00;1.88;;;9.00;99.90;;;;;;5113144;28;20117;-75
2022/01/03 03:51:07;;;;;;;29.70;2.17;;;9.00;99.90;;;;;;5079067;28;20047;-75
2022/01/03 03:53:32;;;;;;;21.08;1.85;;;9.10;99.90;;;;;;5114682;28;20039;-77
2022/01/03 03:55:58;;;;;;;25.77;2.17;;;9.20;99.90;;;;;;5096757;28;20177;-75
2022/01/03 03:58:24;;;;;;;20.40;1.10;;;9.20;99.90;;;;;;5115852;28;20078;-76
2022/01/03 04:00:50;;;;;;;31.60;2.20;;;9.20;99.90;;;;;;5115211;28;20466;-75
2022/01/03 04:03:15;;;;;;;25.67;1.55;;;9.30;99.90;;;;;;5116403;28;20151;-75
2022/01/03 04:05:41;;;;;;;18.58;1.52;;;9.30;99.90;;;;;;5114976;28;20044;-75
2022/01/03 04:08:07;;;;;;;20.48;1.60;;;9.30;99.90;;;;;;5132390;27;20078;-75
2022/01/03 04:10:32;;;;;;;26.60;1.80;;;9.30;99.90;;;;;;5102288;28;20058;-77
2022/01/03 04:12:58;;;;;;;23.17;2.33;;;9.50;99.90;;;;;;5098563;28;20047;-76
2022/01/03 04:15:24;;;;;;;13.27;1.92;;;9.30;99.90;;;;;;5115008;28;20051;-77
2022/01/03 04:17:50;;;;;;;17.20;1.50;;;9.30;99.90;;;;;;5114967;28;20056;-77
2022/01/03 04:20:18;;;;;;;31.85;2.75;;;9.30;99.90;;;;;;5113991;28;20387;-76
2022/01/03 04:22:43;;;;;;;22.90;1.67;;;9.30;99.90;;;;;;5113686;28;20126;-76
2022/01/03 04:25:10;;;;;;;26.15;2.63;;;9.20;99.90;;;;;;5113828;28;20095;-76
2022/01/03 04:27:36;;;;;;;25.60;1.73;;;9.20;99.90;;;;;;5113396;28;20039;-78
2022/01/03 04:30:04;;;;;;;24.52;1.83;;;9.20;99.90;;;;;;5113096;28;20189;-76
2022/01/03 04:32:30;;;;;;;24.33;2.40;;;9.30;99.90;;;;;;5113112;28;20047;-76
2022/01/03 04:34:55;;;;;;;28.83;2.40;;;9.30;99.90;;;;;;5095263;28;20050;-77
2022/01/03 04:37:21;;;;;;;31.40;2.83;;;9.30;99.90;;;;;;5094733;28;20044;-75
2022/01/03 04:39:47;;;;;;;17.52;1.27;;;9.40;99.90;;;;;;5113635;28;20039;-76
2022/01/03 04:42:13;;;;;;;23.20;1.80;;;9.40;99.90;;;;;;5095418;28;20130;-76
2022/01/03 04:44:38;;;;;;;19.80;1.80;;;9.40;99.90;;;;;;5095443;28;20116;-78
2022/01/03 04:47:04;;;;;;;17.83;1.70;;;9.30;99.90;;;;;;5113373;28;20092;-75
2022/01/03 04:49:30;;;;;;;21.38;1.60;;;9.30;99.90;;;;;;5113168;28;20490;-76
2022/01/03 04:51:56;;;;;;;23.52;2.10;;;9.30;99.90;;;;;;5113085;28;20035;-76
2022/01/03 04:54:21;;;;;;;24.02;1.73;;;9.40;99.90;;;;;;5113380;28;20044;-75
2022/01/03 04:56:47;;;;;;;26.00;2.53;;;9.40;99.90;;;;;;5094299;28;20074;-75
2022/01/03 04:59:13;;;;;;;34.38;2.63;;;9.40;99.90;;;;;;5094919;28;20157;-76
2022/01/03 05:01:39;;;;;;;29.92;2.03;;;9.50;99.90;;;;;;5128964;27;20040;-76
2022/01/03 05:04:04;;;;;;;28.98;1.95;;;9.40;99.90;;;;;;5095412;28;20151;-75
2022/01/03 05:06:30;;;;;;;34.83;2.90;;;9.40;99.90;;;;;;5094637;28;20113;-75
2022/01/03 05:08:56;;;;;;;30.35;1.90;;;9.50;99.90;;;;;;5094658;28;20063;-74
2022/01/03 05:11:22;;;;;;;23.50;2.00;;;9.40;99.90;;;;;;5094409;28;20108;-76
2022/01/03 05:13:47;;;;;;;21.58;1.95;;;9.50;99.90;;;;;;5113273;28;20101;-77
2022/01/03 05:16:13;;;;;;;27.02;2.25;;;9.40;99.90;;;;;;5094623;28;20562;-74
2022/01/03 05:18:39;;;;;;;21.25;2.13;;;9.40;99.90;;;;;;5096236;28;20066;-77
2022/01/03 05:21:05;;;;;;;29.90;3.17;;;9.30;99.90;;;;;;5112976;28;20104;-76
2022/01/03 05:23:31;;;;;;;24.58;1.73;;;9.30;99.90;;;;;;5094802;28;20047;-75
2022/01/03 05:25:57;;;;;;;25.25;2.28;;;9.30;99.90;;;;;;5112576;28;20070;-75
2022/01/03 05:28:22;;;;;;;22.73;1.98;;;9.30;99.90;;;;;;5112666;28;20043;-75
2022/01/03 05:30:48;;;;;;;32.20;2.90;;;9.20;99.90;;;;;;5113246;28;20430;-75
2022/01/03 05:33:14;;;;;;;31.38;2.60;;;9.20;99.90;;;;;;5113324;28;20444;-76
2022/01/03 05:35:39;;;;;;;37.55;2.83;;;9.10;99.90;;;;;;5112960;28;20063;-76
2022/01/03 05:38:05;;;;;;;27.17;2.30;;;9.20;99.90;;;;;;5112743;28;20375;-76
2022/01/03 05:40:31;;;;;;;28.13;2.42;;;9.10;99.90;;;;;;5112799;28;20047;-76
2022/01/03 05:42:57;;;;;;;23.17;1.98;;;9.10;99.90;;;;;;5112874;28;20043;-76
2022/01/03 05:45:23;;;;;;;29.50;2.30;;;9.00;99.90;;;;;;5112274;28;20046;-76
2022/01/03 05:47:48;;;;;;;31.90;3.28;;;8.90;99.90;;;;;;5094052;28;20047;-76
2022/01/03 05:50:16;;;;;;;33.53;2.63;;;8.80;99.90;;;;;;5112089;28;20049;-75
2022/01/03 05:52:42;;;;;;;29.25;3.15;;;8.80;99.90;;;;;;5112267;28;20047;-75
2022/01/03 05:55:09;;;;;;;23.70;1.88;;;8.80;99.90;;;;;;5111932;28;20426;-76
2022/01/03 05:57:34;;;;;;;30.57;2.67;;;8.70;99.90;;;;;;5111966;28;20487;-76
2022/01/03 06:00:03;;;;;;;23.52;2.70;;;8.70;99.90;;;;;;5112157;28;20044;-76
2022/01/03 06:02:34;;;;;;;35.22;3.22;;;8.70;99.90;;;;;;5112468;28;20058;-76
2022/01/03 06:05:01;;;;;;;30.92;2.33;;;8.70;99.90;;;;;;5113024;28;20067;-75
2022/01/03 06:07:27;;;;;;;26.40;1.92;;;8.70;99.90;;;;;;5128163;28;20126;-77
2022/01/03 06:09:53;;;;;;;36.70;3.13;;;8.70;99.90;;;;;;5112456;28;20193;-76
2022/01/03 06:12:19;;;;;;;34.85;3.95;;;8.60;99.90;;;;;;5114445;28;20126;-76
2022/01/03 06:14:46;;;;;;;35.45;3.03;;;8.60;99.90;;;;;;5116097;28;20051;-77
2022/01/03 06:17:12;;;;;;;38.25;3.08;;;8.70;99.90;;;;;;5116111;28;20046;-76
2022/01/03 06:19:39;;;;;;;37.17;2.90;;;8.60;99.90;;;;;;5098811;28;20044;-76
2022/01/03 06:22:08;;;;;;;28.38;2.53;;;8.60;99.90;;;;;;5118035;28;20072;-76
2022/01/03 06:24:35;;;;;;;29.05;1.95;;;8.60;99.90;;;;;;5116643;28;20051;-77
2022/01/03 06:27:00;;;;;;;33.30;3.23;;;8.50;99.90;;;;;;5115728;28;20047;-77
2022/01/03 06:29:26;;;;;;;34.47;2.50;;;8.60;99.90;;;;;;5116192;28;20277;-76
2022/01/03 06:31:52;;;;;;;26.33;2.28;;;8.60;99.90;;;;;;5116032;28;20479;-77
2022/01/03 06:34:18;;;;;;;40.75;3.17;;;8.60;99.90;;;;;;5115859;28;20471;-78
2022/01/03 06:36:44;;;;;;;26.05;2.97;;;8.60;99.90;;;;;;5115196;28;20055;-75
2022/01/03 06:39:12;;;;;;;31.83;2.73;;;8.50;99.90;;;;;;5115856;28;20040;-75
2022/01/03 06:41:38;;;;;;;;;;;8.50;99.90;;;;;;5116186;28;20326;-76
2022/01/03 06:44:04;;;;;;;24.90;2.25;;;8.60;99.90;;;;;;5115372;28;20289;-76
2022/01/03 06:46:30;;;;;;;36.28;4.00;;;8.60;99.90;;;;;;5097456;28;20048;-76
2022/01/03 06:48:56;;;;;;;35.85;2.88;;;8.60;99.90;;;;;;5115337;28;20040;-76
2022/01/03 06:51:22;;;;;;;38.10;3.08;;;8.50;99.90;;;;;;5096825;28;20476;-76
2022/01/03 06:53:48;;;;;;;25.95;2.25;;;8.50;99.90;;;;;;5115077;28;20069;-76
2022/01/03 06:56:14;;;;;;;33.20;2.60;;;8.60;99.90;;;;;;5114839;28;20123;-76
2022/01/03 06:58:41;;;;;;;39.08;3.22;;;8.60;99.90;;;;;;5097059;28;20055;-75
2022/01/03 07:01:07;;;;;;;48.53;3.42;;;8.70;99.90;;;;;;5097128;28;20083;-75
2022/01/03 07:03:33;;;;;;;39.15;3.63;;;8.70;99.90;;;;;;5115695;28;20122;-75
2022/01/03 07:05:59;;;;;;;39.10;2.72;;;8.70;99.90;;;;;;5115175;28;20153;-76
2022/01/03 07:08:24;;;;;;;40.10;3.47;;;8.80;99.90;;;;;;5114938;28;20047;-77
2022/01/03 07:10:50;;;;;;;32.30;2.25;;;8.90;99.90;;;;;;5114642;28;20087;-76
2022/01/03 07:13:17;;;;;;;48.20;3.90;;;8.80;99.90;;;;;;5115518;28;20048;-76
2022/01/03 07:21:13;;;;;;;44.42;4.20;;;8.90;99.90;;;;;;5114995;28;20051;-76
2022/01/03 07:23:42;;;;;;;41.25;3.80;;;9.00;99.90;;;;;;5114527;28;20043;-76
2022/01/03 07:26:08;;;;;;;37.78;3.45;;;9.00;99.90;;;;;;5096450;28;20040;-76
2022/01/03 07:28:34;;;;;;;38.20;3.73;;;9.10;99.90;;;;;;5114407;28;20051;-75
2022/01/03 07:31:00;;;;;;;37.45;3.15;;;9.10;99.90;;;;;;5096608;28;20301;-76
2022/01/03 07:33:26;;;;;;;31.33;3.60;;;9.20;99.90;;;;;;5096186;28;20086;-74
2022/01/03 07:35:52;;;;;;;34.65;3.28;;;9.30;99.90;;;;;;5095912;28;20340;-75
2022/01/03 07:38:18;;;;;;;34.08;3.53;;;9.40;99.90;;;;;;5114413;28;20039;-75
2022/01/03 07:40:43;;;;;;;42.17;4.07;;;9.40;99.90;;;;;;5114168;28;20105;-75
2022/01/03 07:43:09;;;;;;;38.47;3.33;;;9.40;99.90;;;;;;5114531;28;20055;-74
2022/01/03 07:45:35;;;;;;;30.10;2.60;;;9.40;99.90;;;;;;5095840;28;20044;-75
2022/01/03 07:48:01;;;;;;;29.48;2.83;;;9.50;99.90;;;;;;5113910;28;20159;-75
2022/01/03 07:50:28;;;;;;;39.15;3.00;;;9.50;99.90;;;;;;5113764;28;20047;-74
2022/01/03 07:52:54;;;;;;;29.38;2.63;;;9.60;99.90;;;;;;5114029;28;20104;-75
2022/01/03 07:55:20;;;;;;;28.67;3.38;;;9.60;99.90;;;;;;5095985;28;20427;-74
2022/01/03 07:57:45;;;;;;;36.22;3.85;;;9.60;99.90;;;;;;5113491;28;20108;-75
2022/01/03 08:00:14;;;;;;;45.03;4.20;;;9.70;99.90;;;;;;5113801;28;20120;-75
2022/01/03 08:02:41;;;;;;;24.27;3.17;;;9.70;99.90;;;;;;5114008;28;20083;-75
2022/01/03 08:05:13;;;;;;;39.17;3.83;;;9.80;99.90;;;;;;5096178;28;20130;-76
2022/01/03 08:07:39;;;;;;;36.33;3.50;;;9.80;99.90;;;;;;5113713;28;20184;-75
2022/01/03 08:10:07;;;;;;;38.10;3.90;;;9.80;99.90;;;;;;5113614;28;20138;-75
2022/01/03 08:12:33;;;;;;;34.17;3.88;;;9.90;99.90;;;;;;5113819;28;20044;-75
2022/01/03 08:14:59;;;;;;;34.40;2.83;;;9.80;99.90;;;;;;5129707;27;20039;-75
2022/01/03 08:17:25;;;;;;;36.53;3.60;;;9.90;99.90;;;;;;5113599;28;20174;-75
2022/01/03 08:19:51;;;;;;;32.10;2.80;;;9.90;99.90;;;;;;5113852;28;20404;-75
2022/01/03 08:22:17;;;;;;;26.65;2.22;;;10.00;99.90;;;;;;5130009;27;20040;-75
2022/01/03 08:24:44;;;;;;;26.02;2.55;;;10.00;99.90;;;;;;5078602;28;20057;-77
2022/01/03 08:27:09;;;;;;;32.30;3.97;;;9.90;99.90;;;;;;5113350;28;20099;-75
2022/01/03 08:29:35;;;;;;;31.63;2.50;;;9.90;99.90;;;;;;5095234;28;20447;-74
2022/01/03 08:32:01;;;;;;;25.48;2.25;;;9.90;99.90;;;;;;5113698;28;20100;-75
2022/01/03 08:34:27;;;;;;;32.80;3.00;;;9.90;99.90;;;;;;5112959;28;20338;-76
2022/01/03 08:36:52;;;;;;;41.05;3.58;;;9.90;99.90;;;;;;5113318;28;20422;-75
2022/01/03 08:39:19;;;;;;;35.90;2.78;;;9.90;99.90;;;;;;5078160;28;20472;-76
2022/01/03 08:41:45;;;;;;;38.97;2.95;;;9.90;99.90;;;;;;5095653;28;20491;-75
2022/01/03 08:44:11;;;;;;;40.30;2.38;;;9.90;99.90;;;;;;5112964;28;20040;-76
2022/01/03 08:46:37;;;;;;;30.73;3.67;;;9.90;99.90;;;;;;5095144;28;20047;-76
2022/01/03 08:49:03;;;;;;;30.65;3.08;;;9.90;99.90;;;;;;5095631;28;20047;-75
2022/01/03 08:51:28;;;;;;;29.83;3.00;;;10.00;99.90;;;;;;5129254;27;20047;-76
2022/01/03 08:53:56;;;;;;;26.95;2.88;;;10.00;99.90;;;;;;5112968;28;20471;-76
2022/01/03 08:56:21;;;;;;;;;;;10.00;99.90;;;;;;5113362;28;20344;-76
2022/01/03 08:58:47;;;;;;;22.50;1.90;;;10.00;99.90;;;;;;5094696;28;19930;-77
2022/01/03 09:01:14;;;;;;;33.20;2.47;;;10.00;99.90;;;;;;5077885;28;20059;-76
2022/01/03 09:03:40;;;;;;;33.38;2.95;;;10.00;99.90;;;;;;5113219;28;20348;-77
2022/01/03 09:06:06;;;;;;;27.58;2.25;;;10.00;99.90;;;;;;5112958;28;20139;-78
2022/01/03 09:08:31;;;;;;;37.20;3.03;;;10.10;99.90;;;;;;5094712;28;20055;-76
2022/01/03 09:10:57;;;;;;;31.30;3.17;;;10.10;99.90;;;;;;5113458;28;20467;-76
2022/01/03 09:13:23;;;;;;;30.27;2.97;;;10.10;99.90;;;;;;5095209;28;20070;-77
2022/01/03 09:15:50;;;;;;;19.70;1.73;;;10.20;99.90;;;;;;5115329;28;20035;-76
2022/01/03 09:18:18;;;;;;;28.80;2.50;;;10.20;99.90;;;;;;5095242;28;20054;-77
2022/01/03 09:20:45;;;;;;;23.50;2.65;;;10.30;99.90;;;;;;5094810;28;20051;-75
2022/01/03 09:23:16;;;;;;;33.38;3.50;;;10.30;99.90;;;;;;5112527;28;20047;-78
2022/01/03 09:30:55;;;;;;;31.83;3.83;;;10.30;99.90;;;;;;5113040;28;20087;-77
2022/01/03 09:33:21;;;;;;;21.05;2.25;;;10.30;99.90;;;;;;5094895;28;20051;-76
2022/01/03 09:35:47;;;;;;;38.10;2.75;;;10.30;99.90;;;;;;5128971;28;20320;-77
2022/01/03 09:38:13;;;;;;;31.48;2.95;;;10.30;99.90;;;;;;5112874;28;20043;-76
2022/01/03 09:40:41;;;;;;;28.80;2.53;;;10.30;99.90;;;;;;5112765;28;20039;-75
2022/01/03 09:43:13;;;;;;;28.33;2.42;;;10.30;99.90;;;;;;5112344;28;20559;-76
2022/01/03 09:45:40;;;;;;;28.92;2.40;;;10.30;99.90;;;;;;5112844;28;20380;-76
2022/01/03 09:48:07;;;;;;;30.83;2.20;;;10.40;99.90;;;;;;5116005;28;20051;-76
2022/01/03 09:50:34;;;;;;;22.17;2.60;;;10.40;99.90;;;;;;5116982;28;20277;-76
2022/01/03 09:53:03;;;;;;;35.40;2.42;;;10.40;99.90;;;;;;5116548;28;20050;-75
2022/01/03 09:55:31;;;;;;;34.35;3.05;;;10.40;99.90;;;;;;5115959;28;20460;-75
2022/01/03 09:57:57;;;;;;;19.45;1.88;;;10.40;99.90;;;;;;5116500;28;20043;-75
2022/01/03 10:00:23;;;;;;;27.23;2.00;;;10.50;99.90;;;;;;5117870;28;20047;-75
2022/01/03 10:02:52;;;;;;;28.00;2.90;;;10.50;99.90;;;;;;5116550;28;20044;-75
2022/01/03 10:05:19;;;;;;;36.53;3.78;;;10.50;99.90;;;;;;5116799;28;20445;-75
2022/01/03 10:07:45;;;;;;;30.77;4.05;;;10.50;99.90;;;;;;5116792;28;20044;-75
2022/01/03 10:10:13;;;;;;;33.53;3.83;;;10.40;99.90;;;;;;5116205;28;20051;-75
2022/01/03 10:12:39;;;;;;;20.60;2.40;;;10.40;99.90;;;;;;5117051;28;20051;-76
2022/01/03 10:15:07;;;;;;;27.88;2.45;;;10.40;99.90;;;;;;5117484;28;20044;-75
2022/01/03 10:17:37;;;;;;;31.48;2.80;;;10.40;99.90;;;;;;5098592;28;20036;-75
2022/01/03 10:20:05;;;;;;;24.25;2.42;;;10.50;99.90;;;;;;5115989;28;20043;-76
2022/01/03 10:22:33;;;;;;;26.23;2.25;;;10.50;99.90;;;;;;5097958;28;20044;-75
2022/01/03 10:25:10;;;;;;;28.13;2.28;;;10.60;99.90;;;;;;5116358;28;20043;-75
2022/01/03 10:27:56;;;;;;;29.55;2.80;;;10.60;99.90;;;;;;5133112;27;20052;-74
2022/01/03 10:30:40;;;;;;;30.48;2.38;;;10.60;99.90;;;;;;5120440;28;20051;-75
2022/01/03 10:33:20;;;;;;;33.63;3.03;;;10.70;99.90;;;;;;5119283;28;20044;-75
2022/01/03 10:35:48;;;;;;;21.63;2.80;;;10.70;99.90;;;;;;5134883;27;20044;-76
2022/01/03 10:38:50;;;;;;;23.48;2.15;;;10.70;99.90;;;;;;5118361;28;20054;-76
2022/01/03 10:41:18;;;;;;;26.20;3.78;;;10.70;99.90;;;;;;5033671;28;20052;-76
2022/01/03 10:43:47;;;;;;;28.83;2.15;;;10.70;99.90;;;;;;5100300;28;20066;-76
2022/01/03 10:46:20;;;;;;;33.40;2.40;;;10.70;99.90;;;;;;5097323;28;20051;-75
2022/01/03 10:48:47;;;;;;;35.90;2.38;;;10.80;99.90;;;;;;5131738;27;20052;-75
2022/01/03 10:51:19;;;;;;;;;;;10.70;99.90;;;;;;5117151;28;20047;-76
2022/01/03 10:53:45;;;;;;;27.35;2.47;;;10.70;99.90;;;;;;5116725;28;19942;-76
2022/01/03 10:56:31;;;;;;;32.17;2.72;;;10.80;99.90;;;;;;5097777;28;20460;-76
2022/01/03 10:58:58;;;;;;;35.05;3.17;;;10.80;99.90;;;;;;5114786;28;20399;-75
2022/01/03 11:01:27;;;;;;;20.70;2.15;;;10.70;99.90;;;;;;5097368;28;20051;-75
2022/01/03 11:03:54;;;;;;;34.42;2.67;;;10.70;99.90;;;;;;5097118;28;20040;-76
2022/01/03 11:06:47;;;;;;;24.42;2.53;;;10.60;99.90;;;;;;5115317;28;20066;-76
2022/01/03 11:11:58;;;;;;;39.33;4.05;;;10.70;99.90;;;;;;5115620;28;20059;-75
2022/01/03 11:14:38;;;;;;;27.60;2.85;;;10.70;99.90;;;;;;5096729;28;20067;-75
2022/01/03 11:17:26;;;;;;;35.83;2.80;;;10.60;99.90;;;;;;5115458;28;20043;-76
2022/01/03 11:19:53;;;;;;;30.95;2.22;;;10.70;99.90;;;;;;5115058;28;20123;-75
2022/01/03 11:22:38;;;;;;;26.00;2.53;;;10.60;99.90;;;;;;5114324;28;20475;-75
2022/01/03 11:25:06;;;;;;;33.17;3.22;;;10.70;99.90;;;;;;5114799;28;20384;-75
2022/01/03 11:27:36;;;;;;;26.92;2.75;;;10.80;99.90;;;;;;5114551;28;20472;-75
2022/01/03 11:30:03;;;;;;;27.35;2.75;;;10.80;99.90;;;;;;5114218;28;20501;-76
2022/01/03 11:32:29;;;;;;;27.30;2.50;;;10.90;99.90;;;;;;5114414;28;20039;-76
2022/01/03 11:34:57;;;;;;;32.15;2.70;;;10.90;99.90;;;;;;5096724;28;20285;-74
2022/01/03 11:37:24;;;;;;;31.08;2.67;;;10.90;99.90;;;;;;5114784;28;20087;-76
2022/01/03 11:39:52;;;;;;;25.05;3.20;;;10.90;99.90;;;;;;5096721;28;20044;-75
2022/01/03 11:42:21;;;;;;;31.73;3.13;;;10.80;99.90;;;;;;5114428;28;20395;-76
2022/01/03 11:44:47;;;;;;;27.98;2.33;;;10.90;99.90;;;;;;5114248;28;20158;-77
2022/01/03 11:47:15;;;;;;;39.22;3.17;;;10.90;99.90;;;;;;5114732;28;20055;-76
2022/01/03 11:49:41;;;;;;;34.92;3.13;;;10.90;99.90;;;;;;5114200;28;20052;-76
2022/01/03 11:52:12;;;;;;;22.57;2.47;;;10.90;99.90;;;;;;5096217;28;20107;-75
2022/01/03 11:54:39;;;;;;;28.40;2.72;;;10.90;99.90;;;;;;5114273;28;20043;-74
2022/01/03 11:57:13;;;;;;;27.87;2.13;;;11.00;99.90;;;;;;5130651;27;20468;-75
2022/01/03 12:05:48;;;;;;;26.40;2.28;;;10.90;99.90;;;;;;5114010;28;20492;-76
2022/01/03 12:08:21;;;;;;;;;;;10.90;99.90;;;;;;5114383;28;20043;-75
2022/01/03 12:10:47;;;;;;;29.75;2.45;;;10.80;99.90;;;;;;5128955;27;19919;-76
2022/01/03 12:13:13;;;;;;;24.95;2.42;;;10.90;99.90;;;;;;5098124;28;20100;-74
2022/01/03 12:15:41;;;;;;;26.50;2.08;;;10.90;99.90;;;;;;5096085;28;20043;-76
2022/01/03 12:18:27;;;;;;;22.98;2.90;;;10.80;99.90;;;;;;5114166;28;20074;-76
2022/01/03 12:20:53;;;;;;;30.35;2.45;;;10.80;99.90;;;;;;5114735;28;20074;-76
2022/01/03 12:23:46;;;;;;;31.77;3.23;;;10.80;99.90;;;;;;5096517;28;20126;-75
2022/01/03 12:26:23;;;;;;;31.52;3.03;;;10.80;99.90;;;;;;5110626;28;20109;-77
2022/01/03 12:29:09;;;;;;;31.70;2.80;;;10.80;99.90;;;;;;5096278;28;20043;-76
2022/01/03 12:32:06;;;;;;;27.27;2.53;;;10.90;99.90;;;;;;5113624;28;20044;-68
2022/01/03 12:34:32;;;;;;;22.33;2.30;;;11.00;99.90;;;;;;5113933;28;20047;-72
2022/01/03 12:37:36;;;;;;;27.58;2.80;;;10.90;99.90;;;;;;5130772;27;20047;-81
2022/01/03 12:40:04;;;;;;;19.60;1.83;;;11.00;99.90;;;;;;5113605;28;20044;-72
2022/01/03 12:42:45;;;;;;;23.85;2.50;;;11.00;99.90;;;;;;5113425;28;20227;-76
2022/01/03 12:45:15;;;;;;;26.10;2.95;;;11.00;99.90;;;;;;5095307;28;20086;-74
2022/01/03 12:47:41;;;;;;;32.00;2.97;;;11.00;99.90;;;;;;5129152;27;20475;-73
2022/01/03 12:50:29;;;;;;;25.48;3.13;;;10.90;99.90;;;;;;5113118;28;20126;-75
2022/01/03 12:52:58;;;;;;;31.92;3.03;;;10.90;99.90;;;;;;5129722;27;20088;-75
2022/01/03 12:55:48;;;;;;;23.58;2.65;;;10.90;99.90;;;;;;5129383;27;20051;-75
2022/01/03 12:58:14;;;;;;;24.90;2.67;;;11.00;99.90;;;;;;5130846;27;20486;-80
2022/01/03 13:00:51;;;;;;;30.13;2.35;;;11.10;99.90;;;;;;5112078;28;20048;-76
2022/01/03 13:03:30;;;;;;;29.42;2.85;;;11.10;99.90;;;;;;5113681;28;20040;-75
2022/01/03 13:06:10;;;;;;;28.73;2.97;;;11.00;99.90;;;;;;5112147;28;20039;-73
2022/01/03 13:08:38;;;;;;;36.60;3.33;;;11.10;99.90;;;;;;5113644;28;20123;-75
2022/01/03 13:11:06;;;;;;;28.05;3.08;;;11.30;99.90;;;;;;5113312;28;20055;-77
2022/01/03 13:13:32;;;;;;;28.35;2.88;;;11.30;99.90;;;;;;5112125;28;20054;-77
2022/01/03 13:15:58;;;;;;;27.53;2.37;;;11.40;99.90;;;;;;5113734;28;20051;-78